Time;durP1;ratioP1;P1;durP2;ratioP2;P2;SDS_P1;SDS_P2;PMS_P1;PMS_P2;Temp;Humidity;BMP_temperature;BMP_pressure;BME280_temperature;BME280_humidity;BME280_pressure;Samples;Min_cycle;Max_cycle;Signal;HPM_P1;HPM_P2
2021/03/02 00:00:07;;;;;;;11.02;3.25;;;;;;;;;;5052819;28;20036;-59
2021/03/02 00:02:33;;;;;;;7.15;3.47;;;;;;;;;;5052867;28;20118;-59
2021/03/02 00:04:59;;;;;;;13.63;4.68;;;;;;;;;;5052474;28;20029;-59
2021/03/02 00:07:27;;;;;;;13.32;4.57;;;;;;;;;;5053518;28;20124;-59
2021/03/02 00:09:53;;;;;;;7.53;3.63;;;;;;;;;;5052764;28;20099;-59
2021/03/02 00:12:19;;;;;;;10.05;3.53;;;;;;;;;;5060874;28;20508;-59
2021/03/02 00:14:45;;;;;;;6.65;3.17;;;;;;;;;;5064386;28;20017;-59
2021/03/02 00:17:31;;;;;;;12.25;3.05;;;;;;;;;;5065561;28;20040;-59
2021/03/02 00:20:05;;;;;;;9.65;3.97;;;;;;;;;;5067642;28;20108;-60
2021/03/02 00:22:34;;;;;;;8.50;4.25;;;;;;;;;;5068603;28;20025;-59
2021/03/02 00:25:02;;;;;;;6.55;3.28;;;;;;;;;;5072452;28;20060;-59
2021/03/02 00:27:30;;;;;;;7.43;3.72;;;;;;;;;;5064803;28;20049;-59
2021/03/02 00:29:56;;;;;;;10.55;3.92;;;;;;;;;;5055505;28;20044;-59
2021/03/02 00:32:23;;;;;;;9.73;4.32;;;;;;;;;;5072421;28;20429;-59
2021/03/02 00:34:49;;;;;;;5.85;3.70;;;;;;;;;;5072543;28;20059;-59
2021/03/02 00:37:15;;;;;;;6.43;3.45;;;;;;;;;;5070249;28;20123;-59
2021/03/02 00:39:41;;;;;;;8.25;3.70;;;;;;;;;;5058797;28;20380;-58
2021/03/02 00:42:07;;;;;;;6.15;3.47;;;;;;;;;;5070889;28;20365;-59
2021/03/02 00:44:33;;;;;;;9.82;4.18;;;;;;;;;;5073283;28;20025;-59
2021/03/02 00:47:00;;;;;;;9.02;3.85;;;;;;;;;;5075355;28;20078;-59
2021/03/02 00:49:26;;;;;;;9.80;3.90;;;;;;;;;;5069238;28;20514;-59
2021/03/02 00:51:52;;;;;;;11.20;4.28;;;;;;;;;;5075726;28;20052;-59
2021/03/02 00:54:18;;;;;;;9.25;3.40;;;;;;;;;;5054996;28;20112;-59
2021/03/02 00:56:44;;;;;;;9.82;4.25;;;;;;;;;;5058596;28;20024;-59
2021/03/02 00:59:10;;;;;;;6.22;3.17;;;;;;;;;;5069476;28;20032;-59
2021/03/02 01:01:36;;;;;;;10.48;4.57;;;;;;;;;;5074443;28;20024;-59
2021/03/02 01:04:02;;;;;;;10.77;4.07;;;;;;;;;;5075826;28;20447;-59
2021/03/02 01:06:28;;;;;;;8.40;3.92;;;;;;;;;;5075492;28;20020;-59
2021/03/02 01:08:54;;;;;;;7.22;4.32;;;;;;;;;;5071909;28;20036;-59
2021/03/02 01:11:20;;;;;;;14.10;4.30;;;;;;;;;;5055294;28;20508;-59
2021/03/02 01:13:46;;;;;;;11.63;4.53;;;;;;;;;;5055776;28;20115;-59
2021/03/02 01:16:12;;;;;;;9.25;3.92;;;;;;;;;;5059319;28;20439;-59
2021/03/02 01:18:38;;;;;;;6.82;3.85;;;;;;;;;;5075388;28;20477;-59
2021/03/02 01:21:04;;;;;;;8.18;4.05;;;;;;;;;;5073577;28;20052;-59
2021/03/02 01:23:30;;;;;;;9.05;4.32;;;;;;;;;;5075391;28;20100;-59
2021/03/02 01:25:56;;;;;;;8.02;3.97;;;;;;;;;;5075026;28;20466;-59
2021/03/02 01:28:22;;;;;;;8.75;4.43;;;;;;;;;;5068386;28;20049;-59
2021/03/02 01:30:48;;;;;;;11.70;4.90;;;;;;;;;;5066390;28;20025;-59
2021/03/02 01:33:14;;;;;;;7.32;3.75;;;;;;;;;;5073987;28;20047;-59
2021/03/02 01:35:40;;;;;;;10.88;4.10;;;;;;;;;;5075147;28;20024;-59
2021/03/02 01:38:07;;;;;;;7.70;4.00;;;;;;;;;;5074755;28;20447;-59
2021/03/02 01:40:33;;;;;;;8.90;4.05;;;;;;;;;;5074169;28;20255;-59
2021/03/02 01:42:59;;;;;;;9.27;4.25;;;;;;;;;;5059169;28;20027;-59
2021/03/02 01:45:25;;;;;;;8.23;3.97;;;;;;;;;;5068344;28;20032;-59
2021/03/02 01:47:52;;;;;;;7.75;3.67;;;;;;;;;;5071931;28;20047;-59
2021/03/02 01:50:19;;;;;;;13.68;4.43;;;;;;;;;;5074793;28;20461;-59
2021/03/02 01:52:45;;;;;;;7.05;4.07;;;;;;;;;;5058129;28;20032;-59
2021/03/02 01:55:11;;;;;;;8.98;4.75;;;;;;;;;;5054419;28;20382;-59
2021/03/02 01:57:37;;;;;;;8.40;4.20;;;;;;;;;;5053401;28;20336;-59
2021/03/02 02:00:13;;;;;;;10.73;4.63;;;;;;;;;;5054800;28;20045;-59
2021/03/02 02:02:59;;;;;;;13.05;4.97;;;;;;;;;;5055842;28;20376;-59
2021/03/02 02:05:27;;;;;;;10.40;4.80;;;;;;;;;;5053069;28;20397;-58
2021/03/02 02:08:00;;;;;;;10.77;5.43;;;;;;;;;;5053941;28;20671;-59
2021/03/02 02:10:29;;;;;;;13.90;5.10;;;;;;;;;;5053372;28;20044;-59
2021/03/02 02:13:01;;;;;;;12.95;4.93;;;;;;;;;;5055323;28;20450;-59
2021/03/02 02:15:28;;;;;;;22.38;5.13;;;;;;;;;;5070861;28;20029;-59
2021/03/02 02:18:08;;;;;;;8.90;3.97;;;;;;;;;;5069603;28;20044;-59
2021/03/02 02:21:04;;;;;;;13.00;5.25;;;;;;;;;;5072489;28;20032;-59
2021/03/02 02:23:33;;;;;;;9.13;4.70;;;;;;;;;;5061597;28;20060;-59
2021/03/02 02:26:17;;;;;;;11.75;4.90;;;;;;;;;;5074141;28;20033;-59
2021/03/02 02:28:44;;;;;;;9.05;4.63;;;;;;;;;;5054268;28;20043;-59
2021/03/02 02:31:10;;;;;;;14.95;5.28;;;;;;;;;;5067293;28;20021;-59
2021/03/02 02:33:39;;;;;;;10.90;5.03;;;;;;;;;;5071001;28;20103;-59
2021/03/02 02:36:06;;;;;;;11.50;5.88;;;;;;;;;;5054348;28;20409;-59
2021/03/02 02:38:33;;;;;;;12.27;5.28;;;;;;;;;;5053319;28;20096;-59
2021/03/02 02:41:00;;;;;;;14.88;5.65;;;;;;;;;;5072732;28;20043;-58
2021/03/02 02:43:26;;;;;;;9.60;5.22;;;;;;;;;;5055426;28;20454;-59
2021/03/02 02:45:53;;;;;;;18.63;5.78;;;;;;;;;;5054780;28;20031;-59
2021/03/02 02:48:19;;;;;;;16.73;6.90;;;;;;;;;;5067659;28;20454;-59
2021/03/02 02:50:45;;;;;;;16.33;5.80;;;;;;;;;;5073590;28;20046;-59
2021/03/02 02:53:12;;;;;;;16.67;6.32;;;;;;;;;;5073464;28;20071;-59
2021/03/02 02:55:44;;;;;;;16.15;6.25;;;;;;;;;;5066330;28;20336;-59
2021/03/02 02:58:10;;;;;;;17.60;6.78;;;;;;;;;;5053347;28;20072;-59
2021/03/02 03:00:37;;;;;;;14.13;6.00;;;;;;;;;;5052219;28;20031;-58
2021/03/02 03:03:06;;;;;;;11.95;5.90;;;;;;;;;;5053375;28;20047;-59
2021/03/02 03:05:32;;;;;;;16.52;6.35;;;;;;;;;;5053226;28;20033;-58
2021/03/02 03:08:02;;;;;;;18.35;7.60;;;;;;;;;;5052446;28;20044;-59
2021/03/02 03:10:29;;;;;;;15.23;6.40;;;;;;;;;;5052192;28;20070;-58
2021/03/02 03:12:59;;;;;;;18.92;6.85;;;;;;;;;;5060913;28;20032;-59
2021/03/02 03:15:26;;;;;;;15.80;7.13;;;;;;;;;;5067393;28;20067;-58
2021/03/02 03:17:57;;;;;;;17.40;6.70;;;;;;;;;;5070785;28;20028;-59
2021/03/02 03:20:26;;;;;;;13.40;6.35;;;;;;;;;;5063286;28;20085;-59
2021/03/02 03:22:53;;;;;;;19.35;6.70;;;;;;;;;;5051820;28;20119;-59
2021/03/02 03:25:19;;;;;;;14.90;7.22;;;;;;;;;;5053211;28;20463;-59
2021/03/02 03:27:48;;;;;;;16.42;7.03;;;;;;;;;;5066906;28;20358;-58
2021/03/02 03:30:15;;;;;;;16.45;6.30;;;;;;;;;;5071568;28;20109;-58
2021/03/02 03:32:46;;;;;;;13.52;6.30;;;;;;;;;;5073006;28;20473;-58
2021/03/02 03:35:13;;;;;;;17.27;5.80;;;;;;;;;;5073236;28;20796;-58
2021/03/02 03:37:39;;;;;;;15.68;7.32;;;;;;;;;;5070988;28;20047;-58
2021/03/02 03:40:05;;;;;;;17.50;6.55;;;;;;;;;;5067768;28;20049;-57
2021/03/02 03:42:31;;;;;;;15.38;6.93;;;;;;;;;;5052653;28;20033;-58
2021/03/02 03:44:59;;;;;;;17.15;7.15;;;;;;;;;;5051697;28;20127;-58
2021/03/02 03:47:25;;;;;;;11.75;5.90;;;;;;;;;;5049824;28;20037;-58
2021/03/02 03:49:51;;;;;;;19.60;7.93;;;;;;;;;;5052945;28;20343;-58
2021/03/02 03:52:18;;;;;;;14.68;5.80;;;;;;;;;;5052896;28;20280;-58
2021/03/02 03:54:44;;;;;;;13.55;6.72;;;;;;;;;;5052768;28;20032;-58
2021/03/02 03:57:11;;;;;;;17.00;7.57;;;;;;;;;;5052542;28;20048;-58
2021/03/02 03:59:38;;;;;;;14.23;6.43;;;;;;;;;;5064688;28;20516;-57
2021/03/02 04:02:04;;;;;;;14.85;6.40;;;;;;;;;;5072836;28;20103;-58
2021/03/02 04:04:30;;;;;;;16.40;7.05;;;;;;;;;;5072786;28;20500;-58
2021/03/02 04:06:56;;;;;;;19.33;7.70;;;;;;;;;;5072537;28;20037;-58
2021/03/02 04:09:22;;;;;;;15.30;5.85;;;;;;;;;;5068188;28;20028;-58
2021/03/02 04:11:48;;;;;;;15.85;6.80;;;;;;;;;;5072416;28;20481;-58
2021/03/02 04:14:15;;;;;;;15.70;7.30;;;;;;;;;;5072645;28;20036;-57
2021/03/02 04:16:42;;;;;;;24.55;7.38;;;;;;;;;;5072617;28;20028;-58
2021/03/02 04:19:09;;;;;;;15.50;6.68;;;;;;;;;;5071069;28;20020;-58
2021/03/02 04:21:35;;;;;;;19.35;8.18;;;;;;;;;;5075130;28;20025;-58
2021/03/02 04:24:01;;;;;;;16.25;7.22;;;;;;;;;;5076479;28;20400;-58
2021/03/02 04:26:27;;;;;;;19.42;7.32;;;;;;;;;;5076200;28;20032;-58
2021/03/02 04:28:53;;;;;;;19.25;7.60;;;;;;;;;;5076010;28;20056;-57
2021/03/02 04:31:19;;;;;;;22.98;8.73;;;;;;;;;;5060660;28;20464;-58
2021/03/02 04:33:46;;;;;;;20.83;6.97;;;;;;;;;;5062690;28;20029;-58
2021/03/02 04:36:12;;;;;;;16.23;6.82;;;;;;;;;;5056144;28;20500;-58
2021/03/02 04:38:38;;;;;;;16.38;7.80;;;;;;;;;;5056165;28;20033;-58
2021/03/02 04:41:04;;;;;;;24.45;8.18;;;;;;;;;;5055748;28;20032;-58
2021/03/02 04:43:30;;;;;;;17.38;6.28;;;;;;;;;;5056020;28;20074;-58
2021/03/02 04:45:56;;;;;;;23.35;7.93;;;;;;;;;;5055970;28;20459;-58
2021/03/02 04:48:22;;;;;;;20.17;8.27;;;;;;;;;;5055858;28;20037;-58
2021/03/02 04:50:48;;;;;;;18.40;7.53;;;;;;;;;;5057019;28;20016;-57
2021/03/02 04:53:14;;;;;;;20.48;8.02;;;;;;;;;;5055939;28;20035;-58
2021/03/02 04:55:40;;;;;;;15.35;7.53;;;;;;;;;;5055950;28;20367;-58
2021/03/02 04:58:06;;;;;;;19.63;7.50;;;;;;;;;;5053986;28;20199;-58
2021/03/02 05:00:32;;;;;;;22.10;8.10;;;;;;;;;;5054545;28;20031;-58
2021/03/02 05:02:58;;;;;;;19.40;7.35;;;;;;;;;;5055330;28;20116;-58
2021/03/02 05:05:24;;;;;;;13.63;6.82;;;;;;;;;;5055747;28;20110;-58
2021/03/02 05:07:50;;;;;;;18.65;7.95;;;;;;;;;;5055212;28;20490;-58
2021/03/02 05:10:16;;;;;;;16.40;7.47;;;;;;;;;;5055754;28;20040;-58
2021/03/02 05:12:42;;;;;;;20.05;7.55;;;;;;;;;;5056324;28;20025;-58
2021/03/02 05:15:08;;;;;;;22.13;8.10;;;;;;;;;;5055636;28;20017;-57
2021/03/02 05:17:34;;;;;;;19.05;7.50;;;;;;;;;;5053735;28;20127;-58
2021/03/02 05:20:00;;;;;;;16.63;7.75;;;;;;;;;;5055346;28;20485;-58
2021/03/02 05:22:26;;;;;;;16.05;6.63;;;;;;;;;;5055669;28;20060;-58
2021/03/02 05:24:52;;;;;;;19.50;8.00;;;;;;;;;;5074717;28;20115;-58
2021/03/02 05:27:18;;;;;;;20.20;7.18;;;;;;;;;;5074280;28;20155;-58
2021/03/02 05:29:44;;;;;;;25.38;8.10;;;;;;;;;;5067820;28;20359;-58
2021/03/02 05:32:10;;;;;;;18.83;7.85;;;;;;;;;;5056127;28;20044;-58
2021/03/02 05:34:36;;;;;;;16.80;6.95;;;;;;;;;;5055629;28;20029;-58
2021/03/02 05:37:02;;;;;;;23.17;8.02;;;;;;;;;;5054715;28;20174;-58
2021/03/02 05:39:28;;;;;;;15.40;7.35;;;;;;;;;;5055221;28;20108;-58
2021/03/02 05:41:55;;;;;;;17.48;8.60;;;;;;;;;;5054588;28;20122;-58
2021/03/02 05:44:21;;;;;;;21.13;8.57;;;;;;;;;;5063595;28;20020;-58
2021/03/02 05:46:47;;;;;;;19.67;8.05;;;;;;;;;;5069351;28;20041;-58
2021/03/02 05:49:14;;;;;;;19.63;8.07;;;;;;;;;;5074555;28;20021;-58
2021/03/02 05:51:40;;;;;;;17.85;7.35;;;;;;;;;;5061860;28;20044;-58
2021/03/02 05:54:07;;;;;;;18.20;7.32;;;;;;;;;;5066767;28;20029;-58
2021/03/02 05:56:33;;;;;;;19.00;7.75;;;;;;;;;;5070885;28;20051;-58
2021/03/02 05:58:59;;;;;;;14.35;8.18;;;;;;;;;;5072759;28;20066;-58
2021/03/02 06:01:26;;;;;;;19.33;7.82;;;;;;;;;;5064852;28;20033;-58
2021/03/02 06:03:52;;;;;;;18.55;7.97;;;;;;;;;;5055532;28;20071;-58
2021/03/02 06:06:18;;;;;;;20.90;7.93;;;;;;;;;;5054288;28;20086;-58
2021/03/02 06:08:45;;;;;;;19.85;8.05;;;;;;;;;;5065108;28;20076;-58
2021/03/02 06:11:28;;;;;;;20.98;7.95;;;;;;;;;;5066877;28;20025;-58
2021/03/02 06:13:55;;;;;;;19.38;7.65;;;;;;;;;;5064676;28;20029;-58
2021/03/02 06:16:21;;;;;;;21.38;8.63;;;;;;;;;;5055799;28;20021;-58
2021/03/02 06:18:48;;;;;;;20.58;7.65;;;;;;;;;;5058970;28;20072;-58
2021/03/02 06:21:14;;;;;;;17.73;6.82;;;;;;;;;;5057494;28;20033;-58
2021/03/02 06:23:47;;;;;;;15.30;6.82;;;;;;;;;;5054835;28;20071;-57
2021/03/02 06:26:26;;;;;;;19.17;7.47;;;;;;;;;;5065692;28;20099;-58
2021/03/02 06:28:52;;;;;;;20.70;7.47;;;;;;;;;;5068321;28;19920;-58
2021/03/02 06:31:40;;;;;;;20.25;7.60;;;;;;;;;;5054685;28;20027;-58
2021/03/02 06:34:13;;;;;;;14.93;7.28;;;;;;;;;;5055069;28;20029;-58
2021/03/02 06:36:40;;;;;;;18.17;6.82;;;;;;;;;;5053760;28;20017;-58
2021/03/02 06:39:26;;;;;;;15.50;7.20;;;;;;;;;;5053628;28;20056;-58
2021/03/02 06:41:53;;;;;;;16.55;7.05;;;;;;;;;;5052849;28;20375;-59
2021/03/02 06:44:19;;;;;;;20.23;6.85;;;;;;;;;;5055225;28;20111;-58
2021/03/02 06:46:46;;;;;;;12.07;6.05;;;;;;;;;;5061235;28;20071;-59
2021/03/02 06:49:12;;;;;;;13.20;6.82;;;;;;;;;;5058273;28;20025;-58
2021/03/02 06:51:38;;;;;;;16.08;6.28;;;;;;;;;;5052478;28;20028;-58
2021/03/02 06:54:15;;;;;;;18.30;6.82;;;;;;;;;;5063309;28;20027;-58
2021/03/02 06:56:42;;;;;;;15.20;6.28;;;;;;;;;;5056242;28;20427;-58
2021/03/02 06:59:10;;;;;;;15.10;6.13;;;;;;;;;;5071190;28;20111;-58
2021/03/02 07:01:37;;;;;;;14.80;6.10;;;;;;;;;;5072870;28;20025;-58
2021/03/02 07:04:13;;;;;;;14.38;6.28;;;;;;;;;;5068944;28;20462;-58
2021/03/02 07:06:42;;;;;;;19.25;6.35;;;;;;;;;;5073235;28;20442;-58
2021/03/02 07:09:08;;;;;;;17.13;7.50;;;;;;;;;;5070680;28;20090;-58
2021/03/02 07:11:35;;;;;;;14.35;6.32;;;;;;;;;;5062265;28;21175;-58
2021/03/02 07:14:02;;;;;;;15.30;8.02;;;;;;;;;;5067563;28;20024;-58
2021/03/02 07:16:28;;;;;;;13.07;6.38;;;;;;;;;;5064222;28;20025;-58
2021/03/02 07:18:56;;;;;;;17.02;6.20;;;;;;;;;;5058474;28;20025;-58
2021/03/02 07:21:23;;;;;;;19.25;6.72;;;;;;;;;;5060317;28;20025;-58
2021/03/02 07:23:49;;;;;;;13.15;6.47;;;;;;;;;;5062104;28;20032;-58
2021/03/02 07:26:16;;;;;;;16.98;6.70;;;;;;;;;;5065993;28;20048;-58
2021/03/02 07:28:43;;;;;;;21.10;6.68;;;;;;;;;;5069240;28;20028;-58
2021/03/02 07:31:09;;;;;;;19.88;7.32;;;;;;;;;;5061706;28;20104;-59
2021/03/02 07:33:39;;;;;;;17.65;6.25;;;;;;;;;;5053191;28;20037;-58
2021/03/02 07:36:05;;;;;;;16.65;6.60;;;;;;;;;;5068559;28;20024;-59
2021/03/02 07:38:31;;;;;;;13.77;6.68;;;;;;;;;;5064855;28;20479;-58
2021/03/02 07:40:57;;;;;;;20.83;7.05;;;;;;;;;;5071316;28;20111;-58
2021/03/02 07:43:28;;;;;;;17.52;6.85;;;;;;;;;;5063393;28;20513;-59
2021/03/02 07:45:55;;;;;;;20.42;6.88;;;;;;;;;;5063542;28;20070;-59
2021/03/02 07:48:25;;;;;;;18.55;7.07;;;;;;;;;;5068746;28;20037;-59
2021/03/02 07:51:12;;;;;;;28.67;8.10;;;;;;;;;;5073115;28;20066;-59
2021/03/02 07:53:38;;;;;;;18.23;7.07;;;;;;;;;;5065389;28;20036;-58
2021/03/02 07:56:19;;;;;;;19.60;7.47;;;;;;;;;;5062922;28;20024;-59
2021/03/02 07:59:05;;;;;;;17.90;7.30;;;;;;;;;;5063079;28;20225;-59
2021/03/02 08:01:34;;;;;;;22.25;9.27;;;;;;;;;;5066189;28;20021;-58
2021/03/02 08:04:16;;;;;;;19.27;7.35;;;;;;;;;;5065682;28;20456;-59
2021/03/02 08:06:52;;;;;;;17.60;7.15;;;;;;;;;;5060914;28;20025;-59
2021/03/02 08:09:21;;;;;;;14.35;7.20;;;;;;;;;;5059946;28;20029;-58
2021/03/02 08:11:47;;;;;;;17.05;7.25;;;;;;;;;;5067270;28;20343;-59
2021/03/02 08:14:16;;;;;;;23.13;8.57;;;;;;;;;;5064647;28;20572;-59
2021/03/02 08:16:58;;;;;;;14.48;7.47;;;;;;;;;;5066288;28;20020;-59
2021/03/02 08:19:30;;;;;;;23.92;7.80;;;;;;;;;;5061737;28;20513;-59
2021/03/02 08:21:56;;;;;;;21.20;9.48;;;;;;;;;;5072777;28;20476;-59
2021/03/02 08:24:41;;;;;;;19.60;8.57;;;;;;;;;;5056704;28;20037;-59
2021/03/02 08:27:07;;;;;;;20.45;9.52;;;;;;;;;;5056050;28;20033;-59
2021/03/02 08:29:33;;;;;;;29.45;10.35;;;;;;;;;;5063518;28;20029;-58
2021/03/02 08:31:59;;;;;;;21.92;9.25;;;;;;;;;;5067778;28;20671;-59
2021/03/02 08:34:25;;;;;;;21.83;9.40;;;;;;;;;;5061508;28;20037;-59
2021/03/02 08:36:52;;;;;;;28.35;11.43;;;;;;;;;;5055772;28;20028;-59
2021/03/02 08:39:20;;;;;;;33.38;11.98;;;;;;;;;;5054723;28;20048;-58
2021/03/02 08:41:47;;;;;;;34.97;12.73;;;;;;;;;;5055364;28;20033;-58
2021/03/02 08:44:17;;;;;;;24.70;9.73;;;;;;;;;;5061340;28;20033;-59
2021/03/02 08:46:43;;;;;;;29.10;12.13;;;;;;;;;;5056005;28;20124;-59
2021/03/02 08:49:10;;;;;;;24.77;9.13;;;;;;;;;;5055692;28;20057;-59
2021/03/02 08:51:37;;;;;;;25.65;9.93;;;;;;;;;;5054694;28;20120;-59
2021/03/02 08:54:03;;;;;;;22.85;9.02;;;;;;;;;;5072142;28;20027;-59
2021/03/02 08:56:29;;;;;;;30.70;12.05;;;;;;;;;;5074505;28;20392;-59
2021/03/02 08:59:03;;;;;;;18.65;7.30;;;;;;;;;;5075394;28;20475;-59
2021/03/02 09:01:30;;;;;;;24.63;10.23;;;;;;;;;;5069387;28;20062;-59
2021/03/02 09:04:15;;;;;;;21.52;9.88;;;;;;;;;;5061539;28;20029;-58
2021/03/02 09:06:44;;;;;;;20.67;9.18;;;;;;;;;;5071028;28;20032;-59
2021/03/02 09:09:20;;;;;;;25.52;9.85;;;;;;;;;;5056358;28;20099;-59
2021/03/02 09:11:47;;;;;;;31.05;11.23;;;;;;;;;;5057377;28;20021;-58
2021/03/02 09:14:13;;;;;;;28.88;10.90;;;;;;;;;;5072171;28;20036;-58
2021/03/02 09:16:40;;;;;;;29.48;12.50;;;;;;;;;;5075057;28;20079;-58
2021/03/02 09:19:09;;;;;;;20.38;8.13;;;;;;;;;;5074961;28;20025;-58
2021/03/02 09:21:37;;;;;;;38.35;14.52;;;;;;;;;;5074160;28;20040;-58
2021/03/02 09:24:03;;;;;;;25.08;11.85;;;;;;;;;;5059778;28;20049;-59
2021/03/02 09:26:30;;;;;;;15.13;6.95;;;;;;;;;;5055254;28;20025;-58
2021/03/02 09:28:57;;;;;;;23.98;9.93;;;;;;;;;;5054732;28;20037;-59
2021/03/02 09:31:24;;;;;;;28.55;12.85;;;;;;;;;;5053919;28;20036;-58
2021/03/02 09:33:51;;;;;;;34.10;13.82;;;;;;;;;;5055403;28;20036;-58
2021/03/02 09:36:17;;;;;;;29.90;13.10;;;;;;;;;;5056050;28;20071;-59
2021/03/02 09:38:43;;;;;;;24.55;10.52;;;;;;;;;;5054879;28;20021;-59
2021/03/02 09:41:10;;;;;;;29.05;11.65;;;;;;;;;;5054510;28;20339;-59
2021/03/02 09:43:37;;;;;;;32.58;12.18;;;;;;;;;;5064506;28;20028;-59
2021/03/02 09:46:03;;;;;;;26.08;12.02;;;;;;;;;;5060513;28;20040;-58
2021/03/02 09:48:42;;;;;;;33.13;11.65;;;;;;;;;;5063453;28;20055;-58
2021/03/02 09:51:27;;;;;;;28.95;11.93;;;;;;;;;;5061518;28;20021;-59
2021/03/02 09:53:53;;;;;;;32.85;12.50;;;;;;;;;;5065167;28;20466;-58
2021/03/02 09:56:20;;;;;;;30.75;12.30;;;;;;;;;;5061430;28;20029;-58
2021/03/02 09:58:47;;;;;;;29.38;13.68;;;;;;;;;;5061970;28;20024;-58
2021/03/02 10:01:13;;;;;;;31.95;12.50;;;;;;;;;;5074074;28;20450;-59
2021/03/02 10:03:41;;;;;;;33.78;13.95;;;;;;;;;;5074767;28;20025;-58
2021/03/02 10:06:07;;;;;;;25.58;10.82;;;;;;;;;;5072881;28;20025;-59
2021/03/02 10:08:33;;;;;;;28.05;10.65;;;;;;;;;;5068355;28;20040;-58
2021/03/02 10:10:59;;;;;;;23.85;7.72;;;;;;;;;;5074063;28;20021;-58
2021/03/02 10:13:36;;;;;;;27.98;12.93;;;;;;;;;;5073131;28;20025;-58
2021/03/02 10:16:14;;;;;;;23.73;9.05;;;;;;;;;;5073030;28;20021;-58
2021/03/02 10:18:47;;;;;;;40.10;15.00;;;;;;;;;;5070790;28;20027;-58
2021/03/02 10:21:14;;;;;;;36.42;14.02;;;;;;;;;;5073296;28;20040;-58
2021/03/02 10:23:47;;;;;;;22.55;10.52;;;;;;;;;;5054518;28;20021;-59
2021/03/02 10:26:19;;;;;;;9.60;4.53;;;;;;;;;;5053712;28;20029;-58
2021/03/02 10:28:45;;;;;;;24.73;9.60;;;;;;;;;;5062847;28;20037;-58
2021/03/02 10:31:11;;;;;;;27.73;11.38;;;;;;;;;;5059692;28;20013;-58
2021/03/02 10:33:37;;;;;;;41.50;11.88;;;;;;;;;;5072754;28;20198;-58
2021/03/02 10:36:03;;;;;;;30.40;14.00;;;;;;;;;;5063102;28;20095;-58
2021/03/02 10:38:29;;;;;;;24.77;10.80;;;;;;;;;;5068957;28;20040;-58
2021/03/02 10:40:55;;;;;;;25.63;10.57;;;;;;;;;;5056442;28;20028;-58
2021/03/02 10:43:21;;;;;;;15.45;7.47;;;;;;;;;;5067659;28;20041;-58
2021/03/02 10:45:47;;;;;;;28.38;11.60;;;;;;;;;;5068971;28;20357;-58
2021/03/02 10:48:13;;;;;;;29.70;12.40;;;;;;;;;;5062260;28;20047;-59
2021/03/02 10:50:39;;;;;;;19.77;9.02;;;;;;;;;;5057107;28;20049;-59
2021/03/02 10:53:06;;;;;;;21.73;8.00;;;;;;;;;;5061543;28;20032;-59
2021/03/02 10:55:32;;;;;;;33.33;12.35;;;;;;;;;;5063313;28;20029;-58
2021/03/02 10:57:58;;;;;;;30.67;11.30;;;;;;;;;;5068554;28;20379;-58
2021/03/02 11:00:24;;;;;;;26.58;12.32;;;;;;;;;;5059648;28;20027;-58
2021/03/02 11:02:50;;;;;;;18.92;7.75;;;;;;;;;;5054555;28;20477;-58
2021/03/02 11:05:16;;;;;;;20.70;9.77;;;;;;;;;;5064230;28;20037;-58
2021/03/02 11:07:42;;;;;;;30.50;11.98;;;;;;;;;;5071791;28;20062;-58
2021/03/02 11:10:08;;;;;;;37.15;12.57;;;;;;;;;;5063485;28;20470;-58
2021/03/02 11:12:34;;;;;;;26.80;11.65;;;;;;;;;;5056461;28;20079;-58
2021/03/02 11:15:00;;;;;;;24.05;10.40;;;;;;;;;;5067194;28;20020;-58
2021/03/02 11:17:26;;;;;;;17.77;8.30;;;;;;;;;;5065978;28;20031;-58
2021/03/02 11:19:52;;;;;;;22.17;10.30;;;;;;;;;;5069058;28;20017;-58
2021/03/02 11:22:18;;;;;;;21.85;9.15;;;;;;;;;;5071919;28;20052;-58
2021/03/02 11:24:44;;;;;;;6.80;3.90;;;;;;;;;;5073849;28;20051;-58
2021/03/02 11:27:10;;;;;;;28.25;13.40;;;;;;;;;;5065052;28;20033;-58
2021/03/02 11:29:38;;;;;;;26.85;10.80;;;;;;;;;;5065556;28;20055;-58
2021/03/02 11:32:05;;;;;;;21.33;10.18;;;;;;;;;;5063463;28;20074;-58
2021/03/02 11:34:31;;;;;;;14.20;6.55;;;;;;;;;;5064362;28;20036;-58
2021/03/02 11:36:57;;;;;;;27.83;12.32;;;;;;;;;;5064471;28;20028;-59
2021/03/02 11:39:23;;;;;;;17.38;8.30;;;;;;;;;;5069014;28;20027;-58
2021/03/02 11:41:49;;;;;;;31.25;12.63;;;;;;;;;;5059063;28;20420;-58
2021/03/02 11:44:15;;;;;;;17.52;8.80;;;;;;;;;;5060747;28;20358;-58
2021/03/02 11:46:41;;;;;;;21.10;10.02;;;;;;;;;;5069514;28;20446;-58
2021/03/02 11:49:07;;;;;;;23.38;10.25;;;;;;;;;;5071121;28;20029;-59
2021/03/02 11:51:33;;;;;;;24.33;11.38;;;;;;;;;;5060406;28;20533;-58
2021/03/02 11:53:59;;;;;;;19.38;8.82;;;;;;;;;;5068824;28;20033;-58
2021/03/02 11:56:25;;;;;;;30.10;12.77;;;;;;;;;;5066781;28;20433;-58
2021/03/02 11:58:51;;;;;;;22.83;9.27;;;;;;;;;;5064488;28;20446;-58
2021/03/02 12:01:17;;;;;;;26.17;12.98;;;;;;;;;;5066899;28;20025;-58
2021/03/02 12:03:43;;;;;;;16.65;7.03;;;;;;;;;;5061099;28;20025;-58
2021/03/02 12:06:09;;;;;;;21.95;10.52;;;;;;;;;;5066917;28;20481;-58
2021/03/02 12:08:35;;;;;;;31.85;14.02;;;;;;;;;;5070237;28;20056;-58
2021/03/02 12:11:01;;;;;;;18.25;8.07;;;;;;;;;;5065035;28;20017;-58
2021/03/02 12:13:27;;;;;;;26.30;11.60;;;;;;;;;;5064257;28;20075;-58
2021/03/02 12:15:55;;;;;;;25.05;10.73;;;;;;;;;;5067585;28;20028;-58
2021/03/02 12:18:21;;;;;;;23.13;10.07;;;;;;;;;;5070363;28;20028;-58
2021/03/02 12:20:47;;;;;;;19.83;9.40;;;;;;;;;;5071298;28;20346;-58
2021/03/02 12:23:13;;;;;;;23.25;10.88;;;;;;;;;;5052494;28;20096;-58
2021/03/02 12:25:39;;;;;;;29.02;13.32;;;;;;;;;;5052644;28;20088;-58
2021/03/02 12:28:05;;;;;;;24.50;12.70;;;;;;;;;;5065997;28;20055;-58
2021/03/02 12:30:31;;;;;;;23.17;10.48;;;;;;;;;;5058299;28;20550;-58
2021/03/02 12:32:57;;;;;;;18.98;8.35;;;;;;;;;;5057649;28;20031;-59
2021/03/02 12:35:24;;;;;;;19.55;9.25;;;;;;;;;;5061167;28;20021;-58
2021/03/02 12:37:50;;;;;;;28.70;11.30;;;;;;;;;;5063641;28;20063;-58
2021/03/02 12:40:16;;;;;;;22.83;11.40;;;;;;;;;;5070003;28;20039;-58
2021/03/02 12:42:43;;;;;;;24.17;10.68;;;;;;;;;;5074458;28;20035;-58
2021/03/02 12:45:09;;;;;;;22.08;10.35;;;;;;;;;;5070068;28;21108;-58
2021/03/02 12:47:35;;;;;;;18.27;8.88;;;;;;;;;;5064009;28;20048;-59
2021/03/02 12:50:02;;;;;;;23.63;10.65;;;;;;;;;;5075878;28;20044;-58
2021/03/02 12:52:28;;;;;;;19.13;9.27;;;;;;;;;;5065101;28;20052;-58
2021/03/02 12:54:54;;;;;;;12.93;5.05;;;;;;;;;;5065139;28;20087;-59
2021/03/02 12:57:21;;;;;;;14.25;6.53;;;;;;;;;;5060948;28;20052;-58
2021/03/02 12:59:47;;;;;;;29.48;10.20;;;;;;;;;;5067742;28;20202;-58
2021/03/02 13:02:13;;;;;;;26.15;10.52;;;;;;;;;;5063625;28;20348;-58
2021/03/02 13:04:39;;;;;;;21.63;7.85;;;;;;;;;;5062523;28;20024;-58
2021/03/02 13:07:06;;;;;;;14.35;5.25;;;;;;;;;;5073858;28;20336;-58
2021/03/02 13:09:32;;;;;;;15.30;7.78;;;;;;;;;;5070257;28;20473;-58
2021/03/02 13:11:58;;;;;;;7.15;3.55;;;;;;;;;;5066601;28;20328;-58
2021/03/02 13:14:24;;;;;;;20.63;7.30;;;;;;;;;;5059357;28;20470;-59
2021/03/02 13:16:50;;;;;;;22.42;10.00;;;;;;;;;;5070260;28;20451;-58
2021/03/02 13:19:17;;;;;;;24.48;10.57;;;;;;;;;;5070449;28;20113;-58
2021/03/02 13:21:43;;;;;;;29.52;11.85;;;;;;;;;;5056291;28;20021;-58
2021/03/02 13:24:10;;;;;;;24.58;11.30;;;;;;;;;;5057971;28;20032;-58
2021/03/02 13:26:37;;;;;;;23.52;10.30;;;;;;;;;;5074191;28;20017;-59
2021/03/02 13:29:09;;;;;;;21.75;10.52;;;;;;;;;;5070024;28;20032;-58
2021/03/02 13:31:36;;;;;;;20.27;8.32;;;;;;;;;;5073743;28;20132;-58
2021/03/02 13:34:03;;;;;;;18.40;8.88;;;;;;;;;;5071005;28;20351;-58
2021/03/02 13:36:29;;;;;;;25.52;11.38;;;;;;;;;;5059497;28;20032;-58
2021/03/02 13:38:58;;;;;;;32.22;11.65;;;;;;;;;;5066002;28;20016;-58
2021/03/02 13:41:24;;;;;;;8.40;3.55;;;;;;;;;;5063819;28;20414;-59
2021/03/02 13:43:51;;;;;;;18.42;8.57;;;;;;;;;;5057926;28;20017;-58
2021/03/02 13:46:17;;;;;;;17.90;8.57;;;;;;;;;;5067974;28;20420;-58
2021/03/02 13:48:45;;;;;;;23.55;10.02;;;;;;;;;;5073077;28;20543;-58
2021/03/02 13:51:11;;;;;;;20.88;9.02;;;;;;;;;;5067824;28;20462;-58
2021/03/02 13:53:37;;;;;;;25.75;10.25;;;;;;;;;;5070694;28;20470;-59
2021/03/02 13:56:04;;;;;;;16.17;7.65;;;;;;;;;;5071545;28;20024;-59
2021/03/02 13:58:30;;;;;;;35.33;8.35;;;;;;;;;;5068696;28;20028;-59
2021/03/02 14:00:56;;;;;;;18.50;8.70;;;;;;;;;;5069018;28;20036;-59
2021/03/02 14:03:22;;;;;;;23.52;9.38;;;;;;;;;;5059362;28;20021;-59
2021/03/02 14:05:50;;;;;;;22.27;9.30;;;;;;;;;;5065290;28;20142;-59
2021/03/02 14:08:16;;;;;;;17.92;9.43;;;;;;;;;;5063500;28;20047;-59
2021/03/02 14:10:44;;;;;;;20.15;9.18;;;;;;;;;;5066493;28;20402;-59
2021/03/02 14:13:10;;;;;;;20.73;9.45;;;;;;;;;;5054174;28;20025;-59
2021/03/02 14:15:36;;;;;;;22.25;10.38;;;;;;;;;;5055520;28;20103;-60
2021/03/02 14:18:03;;;;;;;23.88;10.32;;;;;;;;;;5054032;28;20455;-59
2021/03/02 14:20:29;;;;;;;21.98;8.68;;;;;;;;;;5071260;28;20354;-59
2021/03/02 14:22:56;;;;;;;23.98;10.30;;;;;;;;;;5068719;28;20362;-59
2021/03/02 14:25:22;;;;;;;22.20;10.07;;;;;;;;;;5060884;28;20455;-59
2021/03/02 14:27:49;;;;;;;28.75;10.15;;;;;;;;;;5065708;28;20072;-59
2021/03/02 14:30:17;;;;;;;23.25;10.20;;;;;;;;;;5052795;28;20039;-59